Time;durP1;ratioP1;P1;durP2;ratioP2;P2;SDS_P1;SDS_P2;PMS_P1;PMS_P2;Temp;Humidity;BMP_temperature;BMP_pressure;BME280_temperature;BME280_humidity;BME280_pressure;Samples;Min_cycle;Max_cycle;Signal;HPM_P1;HPM_P2
2020/12/12 05:00:39;;;;;;;20.57;14.40;;;4.50;99.90;;;;;;5880049;23;20482;-65
2020/12/12 05:03:05;;;;;;;20.87;14.80;;;4.40;99.90;;;;;;5001176;28;20436;-65
2020/12/12 05:05:31;;;;;;;18.50;14.70;;;4.40;99.90;;;;;;4980173;28;20450;-65
2020/12/12 05:07:57;;;;;;;19.77;15.13;;;4.40;99.90;;;;;;4978319;28;20450;-66
2020/12/12 05:10:26;;;;;;;20.30;15.53;;;4.40;99.90;;;;;;4977435;28;20565;-65
2020/12/12 05:12:52;;;;;;;15.10;13.23;;;4.40;99.90;;;;;;4976962;28;20451;-66
2020/12/12 05:15:18;;;;;;;17.70;14.47;;;4.40;99.90;;;;;;4976677;28;20451;-65
2020/12/12 05:17:47;;;;;;;20.43;14.10;;;4.40;99.90;;;;;;4976729;28;20470;-65
2020/12/12 05:20:15;;;;;;;17.27;13.10;;;4.40;99.90;;;;;;4976872;28;20478;-65
2020/12/12 05:22:43;;;;;;;16.53;13.77;;;4.40;99.90;;;;;;4977041;28;20451;-65
2020/12/12 05:25:10;;;;;;;19.40;13.93;;;4.40;99.90;;;;;;4976830;28;20447;-65
2020/12/12 05:27:36;;;;;;;14.40;12.90;;;4.50;99.90;;;;;;4976435;28;20958;-65
2020/12/12 05:30:03;;;;;;;17.80;12.97;;;4.50;99.90;;;;;;4976830;28;20490;-65
2020/12/12 05:32:29;;;;;;;15.33;13.13;;;4.60;99.90;;;;;;4976297;28;20478;-65
2020/12/12 05:34:56;;;;;;;16.43;12.93;;;4.50;99.90;;;;;;4977616;28;20860;-65
2020/12/12 05:37:22;;;;;;;14.77;12.20;;;4.60;99.90;;;;;;4976629;28;20450;-66
2020/12/12 05:39:48;;;;;;;20.00;12.80;;;4.60;99.90;;;;;;4976524;28;20454;-65
2020/12/12 05:42:19;;;;;;;17.60;13.13;;;4.60;99.90;;;;;;4976403;28;20474;-65
2020/12/12 05:44:47;;;;;;;17.30;13.77;;;4.60;99.90;;;;;;4976627;28;20494;-65
2020/12/12 05:47:14;;;;;;;16.97;12.77;;;4.60;99.90;;;;;;4977331;28;20494;-66
2020/12/12 05:49:45;;;;;;;16.30;13.43;;;4.60;99.90;;;;;;4978405;28;20474;-65
2020/12/12 05:52:12;;;;;;;16.87;13.67;;;4.60;99.90;;;;;;4977934;28;20482;-65
2020/12/12 05:54:38;;;;;;;15.67;13.13;;;4.70;99.90;;;;;;4976519;28;20455;-65
2020/12/12 05:57:05;;;;;;;16.00;13.03;;;4.70;99.90;;;;;;4976025;28;20463;-65
2020/12/12 05:59:31;;;;;;;16.17;12.67;;;4.70;99.90;;;;;;4976157;28;20451;-65
2020/12/12 06:02:02;;;;;;;16.00;13.87;;;4.80;99.90;;;;;;4975692;28;21001;-66
2020/12/12 06:04:34;;;;;;;17.83;13.20;;;4.80;99.90;;;;;;4975990;28;20458;-65
2020/12/12 06:07:06;;;;;;;17.83;13.70;;;4.80;99.90;;;;;;4976014;28;20439;-65
2020/12/12 06:09:37;;;;;;;17.67;14.17;;;4.80;99.90;;;;;;4976528;28;20473;-65
2020/12/12 06:12:04;;;;;;;17.23;14.10;;;4.80;99.90;;;;;;4976073;28;20484;-65
2020/12/12 06:14:36;;;;;;;19.77;15.13;;;4.90;99.90;;;;;;4981628;28;20426;-65
2020/12/12 06:17:07;;;;;;;19.50;13.13;;;5.00;99.90;;;;;;5000102;28;20443;-65
2020/12/12 06:19:37;;;;;;;16.80;13.40;;;5.00;99.90;;;;;;4999682;28;20435;-64
2020/12/12 06:22:03;;;;;;;16.97;14.03;;;4.90;99.90;;;;;;4999260;28;20641;-64
2020/12/12 06:24:33;;;;;;;17.30;13.63;;;4.90;99.90;;;;;;4999550;28;20457;-64
2020/12/12 06:27:03;;;;;;;16.85;13.82;;;5.00;99.90;;;;;;4978303;28;20462;-65
2020/12/12 06:29:32;;;;;;;16.83;13.90;;;5.30;99.90;;;;;;4976775;28;20254;-66
2020/12/12 06:31:59;;;;;;;17.37;13.90;;;5.10;99.90;;;;;;4977375;28;20485;-65
2020/12/12 06:34:41;;;;;;;16.10;12.60;;;5.00;99.90;;;;;;4976122;28;20962;-65
2020/12/12 06:37:07;;;;;;;16.87;13.90;;;4.90;99.90;;;;;;4974038;28;20447;-66
2020/12/12 06:39:44;;;;;;;16.63;13.90;;;4.80;99.90;;;;;;4975850;28;20447;-65
2020/12/12 06:42:31;;;;;;;17.57;13.93;;;4.80;99.90;;;;;;4975678;28;20480;-65
2020/12/12 06:44:59;;;;;;;15.30;12.10;;;4.80;99.90;;;;;;4975137;28;20469;-65
2020/12/12 06:47:39;;;;;;;15.87;12.60;;;4.80;99.90;;;;;;4975955;28;20454;-65
2020/12/12 06:50:12;;;;;;;16.20;13.00;;;4.80;99.90;;;;;;4975841;28;20482;-64
2020/12/12 06:52:38;;;;;;;16.97;14.10;;;4.70;99.90;;;;;;4976105;28;20451;-64
2020/12/12 06:55:07;;;;;;;18.20;13.50;;;4.70;99.90;;;;;;4975967;28;20481;-65
2020/12/12 06:57:40;;;;;;;15.80;12.83;;;4.70;99.90;;;;;;4976923;28;20462;-64
2020/12/12 07:00:08;;;;;;;15.23;11.83;;;4.70;99.90;;;;;;4976985;28;20489;-65
2020/12/12 07:02:34;;;;;;;13.17;11.10;;;4.70;99.90;;;;;;4976341;28;20482;-65
2020/12/12 07:05:20;;;;;;;13.67;11.33;;;4.80;99.90;;;;;;4976060;28;20454;-65
2020/12/12 07:07:46;;;;;;;14.57;11.47;;;4.80;99.90;;;;;;4976593;28;20461;-65
2020/12/12 07:10:12;;;;;;;13.30;10.43;;;4.80;99.90;;;;;;4975408;28;20478;-65
2020/12/12 07:12:40;;;;;;;11.07;9.93;;;5.10;99.90;;;;;;4974979;28;20462;-64
2020/12/12 07:15:06;;;;;;;14.00;11.00;;;5.10;99.90;;;;;;4975194;28;20485;-65
2020/12/12 07:17:33;;;;;;;10.93;9.07;;;5.20;99.90;;;;;;4974755;28;20458;-63
2020/12/12 07:20:00;;;;;;;11.20;10.00;;;5.10;99.90;;;;;;4974817;28;20450;-65
2020/12/12 07:22:28;;;;;;;10.80;9.70;;;5.20;99.90;;;;;;4975097;28;20474;-65
2020/12/12 07:24:54;;;;;;;10.63;9.50;;;5.50;99.90;;;;;;4974908;28;20478;-64
2020/12/12 07:27:20;;;;;;;10.30;9.33;;;5.50;99.90;;;;;;4974906;28;20868;-64
2020/12/12 07:29:47;;;;;;;10.90;9.43;;;5.40;99.90;;;;;;4974954;28;20486;-64
2020/12/12 07:32:14;;;;;;;10.73;9.63;;;5.40;99.90;;;;;;4974830;28;20471;-64
2020/12/12 07:34:40;;;;;;;11.70;10.20;;;5.40;99.90;;;;;;4974932;28;20451;-65
2020/12/12 07:37:08;;;;;;;10.90;9.77;;;5.40;99.90;;;;;;4974875;28;20461;-64
2020/12/12 07:39:35;;;;;;;10.93;9.20;;;5.30;99.90;;;;;;4974574;28;20462;-65
2020/12/12 07:42:03;;;;;;;12.30;10.27;;;5.30;99.90;;;;;;4974728;28;20478;-65
2020/12/12 07:44:32;;;;;;;11.27;9.70;;;5.40;99.90;;;;;;4974672;28;20461;-64
2020/12/12 07:47:00;;;;;;;10.60;9.50;;;5.30;99.90;;;;;;4974464;28;20935;-65
2020/12/12 07:49:27;;;;;;;17.80;11.10;;;5.30;99.90;;;;;;4974883;28;20451;-64
2020/12/12 07:52:06;;;;;;;10.27;9.23;;;5.20;99.90;;;;;;4974715;28;20971;-64
2020/12/12 07:54:40;;;;;;;11.33;9.53;;;5.20;99.90;;;;;;4974406;28;20497;-63
2020/12/12 07:57:09;;;;;;;13.37;10.20;;;5.30;99.90;;;;;;4976645;28;20439;-64
2020/12/12 07:59:36;;;;;;;12.00;10.67;;;5.30;99.90;;;;;;4977991;28;20454;-64
2020/12/12 08:02:05;;;;;;;11.20;9.90;;;5.40;99.90;;;;;;4977917;28;20871;-65
2020/12/12 08:04:32;;;;;;;14.60;11.07;;;5.40;99.90;;;;;;4978713;28;20817;-65
2020/12/12 08:07:02;;;;;;;12.77;9.70;;;5.50;99.90;;;;;;4978280;28;20446;-65
2020/12/12 08:09:28;;;;;;;10.40;8.63;;;5.60;99.90;;;;;;4978054;28;20900;-65
2020/12/12 08:11:59;;;;;;;10.60;9.50;;;5.70;99.90;;;;;;4978068;28;20541;-65
2020/12/12 08:14:28;;;;;;;10.27;9.27;;;5.80;99.90;;;;;;4977914;28;20454;-65
2020/12/12 08:16:56;;;;;;;9.77;8.77;;;5.90;99.90;;;;;;4980257;28;20439;-65
2020/12/12 08:19:23;;;;;;;11.07;8.83;;;5.90;99.90;;;;;;4978271;28;20458;-64
2020/12/12 08:21:52;;;;;;;12.30;8.90;;;5.90;99.90;;;;;;4978059;28;20481;-63
2020/12/12 08:24:19;;;;;;;10.33;8.50;;;5.90;99.90;;;;;;4978402;28;20454;-63
2020/12/12 08:26:45;;;;;;;10.63;9.53;;;6.00;99.90;;;;;;4979143;28;20458;-64
2020/12/12 08:29:12;;;;;;;9.30;8.40;;;6.00;99.90;;;;;;4977721;28;20455;-64
2020/12/12 08:31:40;;;;;;;11.63;8.93;;;6.10;99.90;;;;;;4978205;28;20493;-63
2020/12/12 08:34:07;;;;;;;8.53;7.70;;;6.10;99.90;;;;;;4978606;28;20455;-64
2020/12/12 08:36:36;;;;;;;12.20;8.93;;;6.20;99.90;;;;;;4977878;28;20861;-64
2020/12/12 08:39:07;;;;;;;10.47;9.37;;;6.20;99.90;;;;;;4979896;28;20510;-64
2020/12/12 08:41:34;;;;;;;11.03;9.67;;;6.20;99.90;;;;;;4980197;28;20478;-64
2020/12/12 08:44:01;;;;;;;12.50;10.00;;;6.20;99.90;;;;;;4977914;28;20610;-63
2020/12/12 08:46:28;;;;;;;9.40;8.30;;;6.20;99.90;;;;;;4977903;28;20517;-61
2020/12/12 08:48:54;;;;;;;10.43;9.33;;;6.30;99.90;;;;;;4979372;28;20451;-61
2020/12/12 08:51:25;;;;;;;11.10;9.90;;;6.30;99.90;;;;;;4977349;28;20514;-63
2020/12/12 08:53:52;;;;;;;11.73;9.37;;;6.20;99.90;;;;;;4977075;28;20819;-63
2020/12/12 08:56:27;;;;;;;14.23;9.67;;;6.20;99.90;;;;;;4977156;28;20458;-63
2020/12/12 08:58:57;;;;;;;11.70;8.90;;;6.20;99.90;;;;;;4977217;28;20454;-64
2020/12/12 09:01:39;;;;;;;9.90;8.90;;;6.30;99.90;;;;;;4977423;28;20510;-64
2020/12/12 09:04:20;;;;;;;9.67;8.73;;;6.50;99.90;;;;;;4975213;28;20451;-63
2020/12/12 09:06:48;;;;;;;9.57;8.57;;;6.50;99.90;;;;;;4976640;28;20917;-63
2020/12/12 09:09:18;;;;;;;10.67;8.97;;;6.60;99.90;;;;;;4976832;28;20974;-63
2020/12/12 09:11:45;;;;;;;9.77;8.77;;;6.60;99.90;;;;;;4976996;28;20494;-63
2020/12/12 09:14:12;;;;;;;11.97;8.37;;;6.60;99.90;;;;;;4977014;28;20478;-63
2020/12/12 09:16:38;;;;;;;9.83;8.73;;;6.70;99.90;;;;;;4976695;28;20534;-64
2020/12/12 09:19:06;;;;;;;7.50;6.80;;;6.80;99.90;;;;;;4977036;28;20458;-67
2020/12/12 09:21:34;;;;;;;8.40;7.50;;;7.00;99.90;;;;;;4978491;28;20462;-64
2020/12/12 09:24:00;;;;;;;8.10;7.30;;;7.20;99.90;;;;;;4976756;28;20457;-65
2020/12/12 09:26:27;;;;;;;9.30;8.40;;;7.20;99.90;;;;;;4976630;28;20808;-64
2020/12/12 09:28:54;;;;;;;9.30;8.40;;;7.30;99.90;;;;;;4976213;28;20974;-64
2020/12/12 09:31:21;;;;;;;9.70;8.00;;;7.30;99.90;;;;;;4976489;28;20564;-63
2020/12/12 09:33:47;;;;;;;8.47;7.73;;;7.40;99.90;;;;;;4976284;28;20958;-65
2020/12/12 09:36:14;;;;;;;8.60;7.80;;;7.40;99.90;;;;;;4976961;28;20466;-64
2020/12/12 09:38:40;;;;;;;9.87;7.40;;;7.30;99.90;;;;;;4976760;28;20455;-65
2020/12/12 09:41:06;;;;;;;8.87;7.00;;;7.30;99.90;;;;;;4976671;28;20471;-64
2020/12/12 09:43:33;;;;;;;8.70;7.80;;;7.30;99.90;;;;;;4976184;28;20451;-65
2020/12/12 09:45:59;;;;;;;8.77;7.87;;;7.10;99.90;;;;;;4976970;28;20459;-63
2020/12/12 09:48:26;;;;;;;8.47;7.67;;;7.20;99.90;;;;;;4977164;28;20523;-64
2020/12/12 09:50:52;;;;;;;7.60;6.80;;;7.10;99.90;;;;;;4975734;28;20489;-65
2020/12/12 09:53:18;;;;;;;9.20;6.80;;;7.10;99.90;;;;;;4976124;28;20455;-65
2020/12/12 09:55:45;;;;;;;9.07;7.33;;;7.20;99.90;;;;;;4978025;28;20466;-64
2020/12/12 09:58:12;;;;;;;10.50;6.93;;;7.10;99.90;;;;;;4978934;28;20459;-65
2020/12/12 10:00:40;;;;;;;8.40;7.60;;;7.10;99.90;;;;;;4978165;28;20486;-64
2020/12/12 10:03:07;;;;;;;7.80;7.10;;;7.20;99.90;;;;;;4976329;28;20435;-64
2020/12/12 10:05:34;;;;;;;8.27;7.47;;;7.20;99.90;;;;;;4975970;28;20451;-64
2020/12/12 10:08:01;;;;;;;7.30;6.60;;;7.30;99.90;;;;;;4975894;28;20548;-65
2020/12/12 10:10:28;;;;;;;7.77;6.13;;;7.20;99.90;;;;;;4975325;28;20485;-65
2020/12/12 10:12:54;;;;;;;6.90;6.13;;;7.10;99.90;;;;;;4975367;28;20457;-65
2020/12/12 10:15:22;;;;;;;7.47;6.50;;;7.10;99.90;;;;;;4976065;28;20487;-64
2020/12/12 10:17:50;;;;;;;7.40;6.70;;;7.10;99.90;;;;;;4975946;28;20823;-65
2020/12/12 10:20:17;;;;;;;6.47;5.97;;;7.10;99.90;;;;;;4975443;28;20445;-64
2020/12/12 10:22:43;;;;;;;7.60;6.03;;;7.10;99.90;;;;;;4975551;28;20949;-64
2020/12/12 10:25:09;;;;;;;7.80;7.10;;;7.20;99.90;;;;;;4975791;28;20458;-64
2020/12/12 10:27:36;;;;;;;6.77;6.17;;;7.30;99.90;;;;;;4975879;28;20451;-66
2020/12/12 10:30:04;;;;;;;5.87;5.37;;;7.30;99.90;;;;;;4976116;28;20482;-64
2020/12/12 10:32:30;;;;;;;5.47;4.97;;;7.30;99.90;;;;;;4976124;28;20475;-64
2020/12/12 10:34:57;;;;;;;5.70;5.20;;;7.30;99.90;;;;;;4975923;28;20459;-64
2020/12/12 10:37:23;;;;;;;4.93;4.43;;;7.40;99.90;;;;;;4975938;28;20458;-66
2020/12/12 10:39:54;;;;;;;5.93;5.43;;;7.40;99.90;;;;;;4975642;28;20825;-65
2020/12/12 10:42:20;;;;;;;5.20;4.80;;;7.40;99.90;;;;;;4975740;28;20479;-65
2020/12/12 10:44:46;;;;;;;6.07;5.50;;;7.50;99.90;;;;;;4975537;28;20513;-65
2020/12/12 10:47:12;;;;;;;5.73;5.23;;;7.60;99.90;;;;;;4975190;28;20974;-65
2020/12/12 10:49:39;;;;;;;6.03;5.53;;;7.60;99.90;;;;;;4975168;28;20451;-65
2020/12/12 10:52:06;;;;;;;5.83;5.33;;;7.80;99.90;;;;;;4974971;28;20640;-64
2020/12/12 10:54:33;;;;;;;5.33;4.83;;;7.70;99.90;;;;;;4975482;28;20455;-67
2020/12/12 10:56:59;;;;;;;5.43;5.00;;;7.80;99.90;;;;;;4975060;28;20461;-63
2020/12/12 10:59:25;;;;;;;5.80;5.30;;;7.80;99.90;;;;;;4974525;28;20549;-63
2020/12/12 11:01:53;;;;;;;5.30;4.80;;;7.80;99.90;;;;;;4974466;28;20482;-63
2020/12/12 11:04:19;;;;;;;6.83;4.97;;;7.90;99.90;;;;;;4975018;28;20823;-64
2020/12/12 11:06:45;;;;;;;6.37;5.87;;;7.90;99.90;;;;;;4974967;28;20458;-64
2020/12/12 11:09:12;;;;;;;5.57;5.17;;;7.90;99.90;;;;;;4974725;28;20798;-64
2020/12/12 11:11:39;;;;;;;5.27;4.87;;;7.90;99.90;;;;;;4978190;28;20482;-62
2020/12/12 11:14:05;;;;;;;5.03;4.73;;;8.00;99.90;;;;;;4980751;28;20473;-63
2020/12/12 11:16:32;;;;;;;6.20;5.70;;;8.10;99.90;;;;;;4976984;28;20450;-63
2020/12/12 11:18:58;;;;;;;6.40;5.80;;;8.20;99.90;;;;;;4974699;28;20459;-63
2020/12/12 11:21:24;;;;;;;5.07;4.67;;;8.30;99.90;;;;;;4975260;28;20479;-63
2020/12/12 11:23:51;;;;;;;5.30;4.90;;;8.30;99.90;;;;;;4975204;28;20458;-63
2020/12/12 11:26:19;;;;;;;4.77;4.47;;;8.30;99.90;;;;;;4975808;28;20454;-62
2020/12/12 11:28:46;;;;;;;5.40;5.03;;;8.40;99.90;;;;;;4975008;28;20459;-64
2020/12/12 11:31:14;;;;;;;5.33;4.97;;;8.40;99.90;;;;;;4976233;28;20478;-64
2020/12/12 11:33:41;;;;;;;5.00;4.60;;;8.40;99.90;;;;;;4980157;28;20454;-63
2020/12/12 11:36:17;;;;;;;6.10;5.57;;;8.40;99.90;;;;;;4979736;28;20450;-64
2020/12/12 11:38:47;;;;;;;4.90;4.60;;;8.40;99.90;;;;;;4979563;28;20854;-64
2020/12/12 11:41:26;;;;;;;5.67;5.27;;;8.40;99.90;;;;;;4980135;28;20471;-64
2020/12/12 11:44:16;;;;;;;5.30;4.70;;;8.40;99.90;;;;;;4980308;28;20525;-64
2020/12/12 11:46:47;;;;;;;5.73;5.30;;;8.50;99.90;;;;;;4979230;28;20453;-64
2020/12/12 11:49:13;;;;;;;5.57;5.07;;;8.50;99.90;;;;;;4979526;28;20445;-63
2020/12/12 11:51:40;;;;;;;5.90;5.40;;;8.60;99.90;;;;;;4978808;28;20493;-64
2020/12/12 11:54:06;;;;;;;5.33;4.93;;;8.60;99.90;;;;;;4979264;28;20459;-64
2020/12/12 11:56:32;;;;;;;5.50;4.83;;;8.70;99.90;;;;;;4978935;28;20454;-63
2020/12/12 11:58:59;;;;;;;5.60;5.17;;;8.80;99.90;;;;;;4978979;28;20454;-64
2020/12/12 12:01:26;;;;;;;6.43;5.83;;;8.80;99.90;;;;;;4978448;28;20482;-63
2020/12/12 12:03:53;;;;;;;5.50;5.00;;;8.90;99.90;;;;;;4978593;28;20461;-62
2020/12/12 12:06:21;;;;;;;5.50;5.00;;;8.80;99.90;;;;;;4978691;28;20998;-63
2020/12/12 12:09:00;;;;;;;5.37;4.87;;;8.80;99.90;;;;;;4979427;28;20451;-63
2020/12/12 12:11:30;;;;;;;6.10;5.50;;;8.80;99.90;;;;;;4978650;28;20490;-63
2020/12/12 12:13:56;;;;;;;7.33;5.67;;;8.80;99.90;;;;;;4979378;28;20533;-64
2020/12/12 12:16:23;;;;;;;5.87;5.47;;;8.70;99.90;;;;;;4978372;28;20940;-64
2020/12/12 12:18:50;;;;;;;5.60;5.10;;;8.80;99.90;;;;;;4978177;28;20451;-64
2020/12/12 12:21:16;;;;;;;6.10;5.60;;;8.80;99.90;;;;;;4978881;28;20474;-63
2020/12/12 12:23:42;;;;;;;7.50;5.57;;;8.80;99.90;;;;;;4978896;28;20460;-64
2020/12/12 12:26:09;;;;;;;6.30;5.70;;;8.80;99.90;;;;;;4978577;28;20462;-65
2020/12/12 12:28:35;;;;;;;6.37;5.87;;;8.80;99.90;;;;;;4978997;28;20504;-64
2020/12/12 12:31:02;;;;;;;6.53;5.93;;;8.80;99.90;;;;;;4978807;28;20514;-65
2020/12/12 12:33:29;;;;;;;7.03;6.33;;;8.80;99.90;;;;;;4978629;28;20439;-63
2020/12/12 12:35:56;;;;;;;7.03;6.33;;;8.70;99.90;;;;;;4978593;28;20438;-63
2020/12/12 12:38:22;;;;;;;7.50;6.80;;;8.80;99.90;;;;;;4978122;28;20454;-64
2020/12/12 12:40:49;;;;;;;6.03;5.50;;;8.80;99.90;;;;;;4978260;28;20478;-65
2020/12/12 12:43:15;;;;;;;6.67;6.07;;;8.80;99.90;;;;;;4977645;28;20441;-63
2020/12/12 12:45:41;;;;;;;6.47;5.90;;;8.80;99.90;;;;;;4978212;28;20439;-63
2020/12/12 12:48:07;;;;;;;6.30;5.80;;;8.70;99.90;;;;;;4979241;28;20443;-62
2020/12/12 12:50:35;;;;;;;7.80;7.10;;;8.70;99.90;;;;;;4980326;28;20479;-63
2020/12/12 12:53:03;;;;;;;7.70;6.33;;;8.70;99.90;;;;;;4978922;28;20458;-64
2020/12/12 12:55:29;;;;;;;6.50;5.90;;;8.60;99.90;;;;;;4979111;28;20462;-63
2020/12/12 12:57:57;;;;;;;7.50;6.90;;;8.50;99.90;;;;;;4979696;28;20998;-63
2020/12/12 13:00:24;;;;;;;7.90;6.20;;;8.30;99.90;;;;;;4977974;28;20963;-63
2020/12/12 13:02:50;;;;;;;7.90;6.53;;;8.30;99.90;;;;;;4979415;28;20450;-63
2020/12/12 13:05:16;;;;;;;12.70;6.70;;;8.10;99.90;;;;;;4980264;28;20439;-63
2020/12/12 13:07:43;;;;;;;8.17;7.33;;;8.00;99.90;;;;;;4988008;28;20466;-63
2020/12/12 13:10:09;;;;;;;8.70;7.90;;;8.00;99.90;;;;;;4990670;28;20461;-63
2020/12/12 13:12:35;;;;;;;11.90;8.90;;;7.90;99.90;;;;;;4994704;28;20506;-63
2020/12/12 13:15:02;;;;;;;8.77;7.90;;;7.90;99.90;;;;;;4999421;28;20439;-63
2020/12/12 13:17:28;;;;;;;9.13;8.10;;;7.90;99.90;;;;;;5000493;28;20427;-63
2020/12/12 13:20:00;;;;;;;9.40;8.50;;;7.80;99.90;;;;;;5000131;28;20459;-64
2020/12/12 13:22:26;;;;;;;9.60;8.80;;;7.80;99.90;;;;;;4981781;28;20521;-61
2020/12/12 13:24:53;;;;;;;10.60;9.60;;;7.80;99.90;;;;;;4980889;28;20454;-62
2020/12/12 13:27:19;;;;;;;9.80;8.90;;;7.80;99.90;;;;;;4981230;28;20935;-62
2020/12/12 13:32:30;;;;;;;9.93;8.07;;;7.80;99.90;;;;;;5000042;28;20545;-63
2020/12/12 13:34:56;;;;;;;16.70;7.97;;;7.80;99.90;;;;;;5000466;28;20450;-64
2020/12/12 13:37:22;;;;;;;8.77;7.73;;;7.80;99.90;;;;;;5000350;28;20442;-64
2020/12/12 13:39:50;;;;;;;8.90;8.10;;;7.80;99.90;;;;;;4990758;28;20470;-63
2020/12/12 13:42:18;;;;;;;8.73;7.83;;;7.90;99.90;;;;;;4981352;28;20550;-62
2020/12/12 13:44:45;;;;;;;9.47;8.57;;;7.90;99.90;;;;;;4981464;28;20435;-62
2020/12/12 13:47:12;;;;;;;10.53;8.77;;;8.00;99.90;;;;;;4978868;28;20454;-62
2020/12/12 13:49:39;;;;;;;8.73;7.90;;;8.00;99.90;;;;;;4981655;28;20450;-63
2020/12/12 13:52:06;;;;;;;10.10;8.90;;;8.00;99.90;;;;;;4979109;28;20491;-62
2020/12/12 13:54:32;;;;;;;9.13;8.30;;;8.10;99.90;;;;;;4977735;28;20439;-62
2020/12/12 13:56:59;;;;;;;9.00;8.33;;;8.10;99.90;;;;;;4977909;28;20458;-63
2020/12/12 13:59:26;;;;;;;9.37;8.47;;;8.00;99.90;;;;;;4977779;28;20435;-62
2020/12/12 14:01:53;;;;;;;8.80;7.90;;;8.00;99.90;;;;;;4977279;28;20474;-63
2020/12/12 14:04:19;;;;;;;9.80;8.57;;;8.10;99.90;;;;;;4983933;28;21002;-63
2020/12/12 14:06:47;;;;;;;9.73;8.80;;;8.00;99.90;;;;;;4982114;28;20451;-63
2020/12/12 14:09:35;;;;;;;10.37;9.27;;;8.00;99.90;;;;;;4980326;28;20493;-63
2020/12/12 14:23:10;;;;;;;12.30;11.17;;;7.80;99.90;;;;;;4977435;28;20450;-63
2020/12/12 14:25:40;;;;;;;13.03;11.03;;;7.70;99.90;;;;;;4976974;28;20453;-63
2020/12/12 14:28:21;;;;;;;13.20;11.50;;;7.60;99.90;;;;;;4977034;28;20455;-62
2020/12/12 14:30:48;;;;;;;16.60;12.80;;;7.60;99.90;;;;;;4977112;28;20491;-63
2020/12/12 14:33:14;;;;;;;18.10;11.63;;;7.70;99.90;;;;;;4977246;28;20451;-63
2020/12/12 14:35:41;;;;;;;12.63;11.30;;;7.70;99.90;;;;;;4976961;28;20470;-61
2020/12/12 14:38:07;;;;;;;15.50;10.60;;;7.70;99.90;;;;;;4976333;28;20459;-62
2020/12/12 14:40:33;;;;;;;12.90;11.60;;;7.70;99.90;;;;;;4976601;28;20517;-62
2020/12/12 14:42:59;;;;;;;16.30;11.77;;;7.80;99.90;;;;;;4976307;28;20450;-62
2020/12/12 14:45:26;;;;;;;13.73;12.20;;;7.80;99.90;;;;;;4976088;28;20450;-62
2020/12/12 14:47:53;;;;;;;15.17;12.30;;;7.70;99.90;;;;;;4976313;28;20450;-62
2020/12/12 14:50:19;;;;;;;15.13;11.30;;;7.70;99.90;;;;;;4975972;28;20457;-63
2020/12/12 14:52:46;;;;;;;15.57;12.80;;;7.80;99.90;;;;;;4976437;28;20457;-62
2020/12/12 14:55:13;;;;;;;14.77;12.80;;;7.80;99.90;;;;;;4976043;28;20477;-62
2020/12/12 14:57:39;;;;;;;15.13;12.80;;;7.80;99.90;;;;;;4975975;28;20462;-63
2020/12/12 15:00:06;;;;;;;14.70;13.03;;;7.80;99.90;;;;;;4976058;28;20461;-62
2020/12/12 15:02:33;;;;;;;22.53;14.60;;;7.80;99.90;;;;;;4976002;28;20501;-63
2020/12/12 15:05:00;;;;;;;16.50;14.80;;;7.80;99.90;;;;;;4975686;28;20458;-63
2020/12/12 15:07:26;;;;;;;18.50;16.60;;;7.80;99.90;;;;;;4975250;28;20450;-63
2020/12/12 15:09:52;;;;;;;19.00;15.43;;;7.90;99.90;;;;;;4975812;28;20673;-62
2020/12/12 15:12:18;;;;;;;17.37;15.50;;;7.90;99.90;;;;;;4976234;28;20510;-63
2020/12/12 15:14:45;;;;;;;17.30;15.60;;;8.30;99.90;;;;;;4976355;28;20463;-62
2020/12/12 15:17:11;;;;;;;13.40;12.10;;;8.40;99.90;;;;;;4976166;28;20467;-62
2020/12/12 15:19:38;;;;;;;15.10;13.50;;;8.40;99.90;;;;;;4976925;28;20458;-64
2020/12/12 15:22:05;;;;;;;14.50;12.33;;;8.40;99.90;;;;;;4976477;28;20485;-62
2020/12/12 15:24:31;;;;;;;14.70;13.20;;;8.40;99.90;;;;;;4976040;28;20451;-63
2020/12/12 15:26:59;;;;;;;16.37;14.47;;;8.30;99.90;;;;;;4975726;28;20975;-63
2020/12/12 15:29:25;;;;;;;18.63;13.97;;;8.20;99.90;;;;;;4975554;28;20451;-62
2020/12/12 15:31:52;;;;;;;16.67;14.97;;;8.10;99.90;;;;;;4975469;28;20486;-63
2020/12/12 15:34:18;;;;;;;16.27;13.33;;;8.00;99.90;;;;;;4979909;28;20478;-65
2020/12/12 15:36:44;;;;;;;19.80;15.07;;;7.90;99.90;;;;;;4976871;28;20454;-63
2020/12/12 15:39:12;;;;;;;16.97;15.20;;;7.90;99.90;;;;;;4975871;28;20457;-63
2020/12/12 15:41:38;;;;;;;16.60;14.30;;;7.80;99.90;;;;;;4975651;28;20478;-63
2020/12/12 15:44:04;;;;;;;19.73;13.80;;;7.80;99.90;;;;;;4976274;28;20451;-64
2020/12/12 15:46:33;;;;;;;17.13;15.43;;;7.80;99.90;;;;;;4975223;28;20454;-63
2020/12/12 15:49:00;;;;;;;20.20;17.10;;;7.70;99.90;;;;;;4974831;28;20936;-62
2020/12/12 15:51:32;;;;;;;23.47;19.87;;;7.70;99.90;;;;;;4974654;28;20482;-64
2020/12/12 15:53:58;;;;;;;25.83;21.00;;;7.70;99.90;;;;;;4975281;28;20786;-63
2020/12/12 15:56:31;;;;;;;24.77;19.40;;;7.70;99.90;;;;;;4975214;28;20461;-62
2020/12/12 15:58:57;;;;;;;29.13;23.43;;;7.70;99.90;;;;;;4975586;28;20445;-63
2020/12/12 16:01:23;;;;;;;24.73;21.67;;;7.70;99.90;;;;;;4975432;28;20474;-63
2020/12/12 16:03:50;;;;;;;24.40;18.53;;;7.70;99.90;;;;;;4975430;28;20454;-62
2020/12/12 16:06:17;;;;;;;22.10;17.10;;;7.70;99.90;;;;;;4975515;28;20467;-62
2020/12/12 16:08:44;;;;;;;19.93;17.30;;;7.70;99.90;;;;;;4975561;28;20457;-63
2020/12/12 16:11:10;;;;;;;29.57;25.20;;;7.80;99.90;;;;;;4975355;28;20478;-63
2020/12/12 16:13:37;;;;;;;22.67;18.03;;;7.80;99.90;;;;;;4975106;28;21010;-62
2020/12/12 16:16:04;;;;;;;22.27;18.83;;;7.80;99.90;;;;;;4975242;28;20454;-62
2020/12/12 16:18:30;;;;;;;21.00;18.50;;;7.80;99.90;;;;;;4978206;28;20454;-63
2020/12/12 16:20:57;;;;;;;20.60;16.87;;;7.80;99.90;;;;;;4979352;28;20834;-63
2020/12/12 16:23:23;;;;;;;19.60;16.10;;;7.90;99.90;;;;;;4978967;28;20948;-63
2020/12/12 16:25:49;;;;;;;17.50;15.77;;;7.90;99.90;;;;;;4983435;28;20458;-63
2020/12/12 16:28:15;;;;;;;18.40;16.53;;;8.00;99.90;;;;;;4996423;28;20505;-63
2020/12/12 16:30:42;;;;;;;21.77;16.57;;;8.00;99.90;;;;;;4980119;28;20869;-64
2020/12/12 16:33:09;;;;;;;16.67;14.90;;;8.00;99.90;;;;;;4978967;28;20463;-62
2020/12/12 16:35:36;;;;;;;18.47;15.20;;;7.90;99.90;;;;;;4978756;28;20462;-62
2020/12/12 16:38:03;;;;;;;16.60;14.90;;;7.90;99.90;;;;;;4979450;28;20437;-63
2020/12/12 16:40:30;;;;;;;15.43;13.83;;;7.90;99.90;;;;;;4978592;28;20455;-62
2020/12/12 16:42:56;;;;;;;18.33;16.10;;;7.90;99.90;;;;;;4978772;28;20454;-62
2020/12/12 16:45:22;;;;;;;18.60;14.53;;;8.00;99.90;;;;;;4979379;28;20819;-61
2020/12/12 16:47:50;;;;;;;17.33;15.03;;;7.90;99.90;;;;;;4979413;28;20450;-63
2020/12/12 16:50:16;;;;;;;18.73;14.60;;;7.90;99.90;;;;;;4979414;28;20454;-62
2020/12/12 16:52:45;;;;;;;16.27;14.57;;;7.90;99.90;;;;;;4979141;28;20486;-62
2020/12/12 16:55:12;;;;;;;15.33;13.00;;;8.00;99.90;;;;;;4979839;28;20459;-64
2020/12/12 16:57:39;;;;;;;21.73;19.47;;;7.90;99.90;;;;;;4978672;28;20457;-64
2020/12/12 17:00:08;;;;;;;22.47;16.83;;;8.00;99.90;;;;;;4979208;28;20495;-63
2020/12/12 17:02:34;;;;;;;21.77;19.60;;;8.00;99.90;;;;;;4977908;28;20478;-62
2020/12/12 17:05:02;;;;;;;21.63;18.70;;;8.00;99.90;;;;;;4978423;28;20490;-63
2020/12/12 17:07:28;;;;;;;24.47;21.10;;;8.00;99.90;;;;;;4978061;28;20446;-63
2020/12/12 17:09:54;;;;;;;23.07;18.90;;;7.90;99.90;;;;;;4977075;28;20935;-64
2020/12/12 17:12:20;;;;;;;18.80;16.80;;;7.90;99.90;;;;;;4977706;28;20490;-64
2020/12/12 17:14:46;;;;;;;21.97;17.87;;;8.00;99.90;;;;;;4977582;28;20458;-63
2020/12/12 17:17:13;;;;;;;21.77;17.63;;;7.90;99.90;;;;;;4977592;28;20458;-63
2020/12/12 17:19:39;;;;;;;19.73;17.43;;;7.90;99.90;;;;;;4977733;28;20447;-62
2020/12/12 17:22:08;;;;;;;18.03;15.93;;;8.00;99.90;;;;;;4976904;28;20489;-63
2020/12/12 17:24:34;;;;;;;16.27;14.57;;;8.10;99.90;;;;;;4977417;28;20882;-63
2020/12/12 17:27:01;;;;;;;30.67;21.17;;;8.10;99.90;;;;;;4977626;28;20451;-64
2020/12/12 17:29:27;;;;;;;26.63;20.83;;;8.10;99.90;;;;;;4979054;28;20455;-62
2020/12/12 17:31:53;;;;;;;21.73;18.07;;;8.20;99.90;;;;;;4979514;28;20490;-64
2020/12/12 17:34:19;;;;;;;18.20;15.17;;;8.20;99.90;;;;;;4977564;28;20461;-64
2020/12/12 17:36:49;;;;;;;14.80;13.27;;;8.20;99.90;;;;;;4977453;28;20455;-64
2020/12/12 17:39:17;;;;;;;14.40;12.67;;;8.10;99.90;;;;;;4977394;28;20438;-63
2020/12/12 17:41:45;;;;;;;15.00;12.53;;;8.20;99.90;;;;;;4976931;28;20561;-63
2020/12/12 17:44:11;;;;;;;12.57;11.37;;;8.20;99.90;;;;;;4976950;28;20450;-63
2020/12/12 17:46:38;;;;;;;12.00;10.90;;;8.20;99.90;;;;;;4976511;28;20462;-63
2020/12/12 17:49:05;;;;;;;12.63;10.70;;;8.20;99.90;;;;;;4977092;28;20450;-68
2020/12/12 17:51:32;;;;;;;16.50;11.10;;;8.20;99.90;;;;;;4977195;28;20493;-64
2020/12/12 17:53:58;;;;;;;11.20;10.10;;;8.30;99.90;;;;;;4977650;28;20470;-64
2020/12/12 17:56:25;;;;;;;10.53;9.50;;;8.20;99.90;;;;;;4978257;28;20816;-64
2020/12/12 17:58:52;;;;;;;14.37;10.40;;;8.20;99.90;;;;;;4976967;28;20819;-64
2020/12/12 18:01:18;;;;;;;9.60;8.70;;;8.20;99.90;;;;;;4976491;28;20482;-64